Time;durP1;ratioP1;P1;durP2;ratioP2;P2;SDS_P1;SDS_P2;PMS_P1;PMS_P2;Temp;Humidity;BMP_temperature;BMP_pressure;BME280_temperature;BME280_humidity;BME280_pressure;Samples;Min_cycle;Max_cycle;Signal;HPM_P1;HPM_P2
2022/08/04 00:01:37;;;;;;;7.30;3.97;;;25.40;81.60;;;;;;5052594;28;20496;-57
2022/08/04 00:04:13;;;;;;;5.20;3.50;;;25.30;81.60;;;;;;5053203;28;20425;-57
2022/08/04 00:06:55;;;;;;;4.73;3.67;;;25.30;82.50;;;;;;5052548;28;20425;-57
2022/08/04 00:09:30;;;;;;;5.27;3.97;;;25.30;82.80;;;;;;5052502;28;20457;-57
2022/08/04 00:12:00;;;;;;;4.53;4.10;;;25.10;83.50;;;;;;5052433;28;20933;-57
2022/08/04 00:14:33;;;;;;;4.60;4.10;;;25.00;84.80;;;;;;5052775;28;20457;-57
2022/08/04 00:17:05;;;;;;;8.00;4.40;;;25.00;85.10;;;;;;5052836;28;20470;-57
2022/08/04 00:19:36;;;;;;;4.30;3.90;;;24.90;85.60;;;;;;5052563;28;20436;-57
2022/08/04 00:22:06;;;;;;;6.53;4.23;;;25.00;85.70;;;;;;5052726;28;20441;-57
2022/08/04 00:24:35;;;;;;;5.67;4.10;;;25.00;85.70;;;;;;5053047;28;20437;-56
2022/08/04 00:27:02;;;;;;;5.43;4.93;;;25.00;85.90;;;;;;5052812;28;20433;-57
2022/08/04 00:29:32;;;;;;;4.60;4.10;;;25.10;86.30;;;;;;5052180;28;20453;-57
2022/08/04 00:32:01;;;;;;;4.13;3.77;;;25.00;86.90;;;;;;5052557;28;20880;-57
2022/08/04 00:34:33;;;;;;;4.80;4.40;;;24.90;87.40;;;;;;5052535;28;20453;-57
2022/08/04 00:37:00;;;;;;;5.07;4.67;;;24.90;87.80;;;;;;5052632;28;20465;-57
2022/08/04 00:39:29;;;;;;;4.80;4.27;;;24.80;89.10;;;;;;5052240;28;20460;-57
2022/08/04 00:42:16;;;;;;;4.57;4.17;;;24.80;88.70;;;;;;5052426;28;20445;-57
2022/08/04 00:45:00;;;;;;;5.20;4.70;;;24.80;89.00;;;;;;5053456;28;20473;-57
2022/08/04 00:47:44;;;;;;;4.00;3.30;;;24.80;89.10;;;;;;5056509;28;20430;-57
2022/08/04 00:50:18;;;;;;;5.37;4.23;;;24.80;89.40;;;;;;5056471;28;20472;-57
2022/08/04 00:53:01;;;;;;;4.90;4.50;;;24.70;90.30;;;;;;5056259;28;20765;-57
2022/08/04 00:55:52;;;;;;;6.03;4.83;;;24.50;90.60;;;;;;5055954;28;20897;-57
2022/08/04 00:58:32;;;;;;;6.60;4.13;;;24.40;91.10;;;;;;5056288;28;20429;-57
2022/08/04 01:01:02;;;;;;;5.30;4.00;;;24.40;91.50;;;;;;5055848;28;20473;-57
2022/08/04 01:03:47;;;;;;;6.93;4.93;;;24.20;91.50;;;;;;5055987;28;20433;-57
2022/08/04 01:06:24;;;;;;;6.47;4.40;;;24.20;91.90;;;;;;5055695;28;20425;-57
2022/08/04 01:09:05;;;;;;;4.50;4.07;;;24.30;92.10;;;;;;5055990;28;20492;-57
2022/08/04 01:11:39;;;;;;;5.20;3.80;;;;;;;;;;5055850;28;20801;-57
2022/08/04 01:14:24;;;;;;;4.60;3.80;;;24.50;91.50;;;;;;5055699;28;20418;-57
2022/08/04 01:16:56;;;;;;;6.40;4.33;;;24.50;91.60;;;;;;5055432;28;20465;-57
2022/08/04 01:19:51;;;;;;;4.27;3.70;;;24.10;91.90;;;;;;5055921;28;20453;-57
2022/08/04 01:22:38;;;;;;;6.70;3.97;;;24.10;92.20;;;;;;5052479;28;20453;-57
2022/08/04 01:25:24;;;;;;;4.83;4.00;;;24.20;92.40;;;;;;5055376;28;20433;-57
2022/08/04 01:28:15;;;;;;;4.83;3.40;;;24.10;92.30;;;;;;5055588;28;20604;-57
2022/08/04 01:30:47;;;;;;;5.13;3.60;;;23.90;92.70;;;;;;5055535;28;20798;-57
2022/08/04 01:33:17;;;;;;;5.63;4.10;;;23.80;92.90;;;;;;5055235;28;20425;-57
2022/08/04 01:35:50;;;;;;;5.50;4.33;;;23.90;93.10;;;;;;5055293;28;20473;-57
2022/08/04 01:38:24;;;;;;;4.27;3.73;;;23.80;93.30;;;;;;5055393;28;20434;-57
2022/08/04 01:40:53;;;;;;;4.20;3.30;;;23.80;93.60;;;;;;5055003;28;20476;-57
2022/08/04 01:43:21;;;;;;;4.73;3.87;;;23.80;93.40;;;;;;5055425;28;20453;-57
2022/08/04 01:45:51;;;;;;;4.40;3.43;;;23.90;93.70;;;;;;5054942;28;20469;-57
2022/08/04 01:48:24;;;;;;;4.23;3.80;;;24.00;93.90;;;;;;5055140;28;20460;-57
2022/08/04 01:50:53;;;;;;;5.17;3.37;;;24.00;93.80;;;;;;5055089;28;20469;-57
2022/08/04 01:53:20;;;;;;;4.57;3.80;;;24.10;93.60;;;;;;5055102;28;20906;-57
2022/08/04 01:55:49;;;;;;;4.67;3.90;;;23.90;93.80;;;;;;5053821;28;20453;-57
2022/08/04 01:58:19;;;;;;;4.23;3.83;;;23.80;94.20;;;;;;5054923;28;20445;-57
2022/08/04 02:00:56;;;;;;;3.40;3.10;;;23.80;94.70;;;;;;5055102;28;20476;-57
2022/08/04 02:03:23;;;;;;;4.37;3.97;;;23.80;94.40;;;;;;5054986;28;20472;-57
2022/08/04 02:05:54;;;;;;;3.37;3.07;;;23.80;94.50;;;;;;5054498;28;20445;-57
2022/08/04 02:08:30;;;;;;;5.63;4.17;;;23.80;94.60;;;;;;5054958;28;20430;-57
2022/08/04 02:11:04;;;;;;;3.47;3.17;;;23.60;94.80;;;;;;5054932;28;20473;-57
2022/08/04 02:13:39;;;;;;;4.77;3.47;;;23.70;95.10;;;;;;5054556;28;20969;-57
2022/08/04 02:16:16;;;;;;;3.43;3.13;;;23.80;95.30;;;;;;5054867;28;20469;-57
2022/08/04 02:18:53;;;;;;;5.67;4.07;;;23.80;95.30;;;;;;5054678;28;20429;-57
2022/08/04 02:21:23;;;;;;;3.40;3.10;;;23.80;95.30;;;;;;5054518;28;20469;-57
2022/08/04 02:23:54;;;;;;;3.90;3.60;;;23.70;95.50;;;;;;5054181;28;20450;-57
2022/08/04 02:26:22;;;;;;;5.17;3.63;;;23.50;95.80;;;;;;5054755;28;20441;-57
2022/08/04 02:28:55;;;;;;;4.30;3.43;;;23.50;95.90;;;;;;5054266;28;20448;-57
2022/08/04 02:31:31;;;;;;;3.57;3.27;;;23.60;96.00;;;;;;5054033;28;20501;-57
2022/08/04 02:34:07;;;;;;;5.87;3.70;;;23.60;95.90;;;;;;5054514;28;20824;-57
2022/08/04 02:36:37;;;;;;;4.10;3.03;;;23.40;96.40;;;;;;5054199;28;20552;-57
2022/08/04 02:39:06;;;;;;;4.00;3.53;;;23.30;96.90;;;;;;5053937;28;20980;-57
2022/08/04 02:41:35;;;;;;;4.10;3.30;;;23.10;97.20;;;;;;5054141;28;20469;-57
2022/08/04 02:44:04;;;;;;;8.23;3.90;;;23.20;97.30;;;;;;5053607;28;20803;-57
2022/08/04 02:46:35;;;;;;;5.13;4.50;;;23.20;97.40;;;;;;5054195;28;20414;-57
2022/08/04 02:49:04;;;;;;;4.23;3.70;;;23.20;97.60;;;;;;5053751;28;20524;-56
2022/08/04 02:51:34;;;;;;;3.90;3.50;;;23.30;97.90;;;;;;5053704;28;20489;-56
2022/08/04 02:54:04;;;;;;;4.83;3.80;;;23.40;97.50;;;;;;5053964;28;20426;-57
2022/08/04 02:56:34;;;;;;;4.50;3.70;;;23.50;97.30;;;;;;5054147;28;20500;-57
2022/08/04 02:59:04;;;;;;;8.30;3.90;;;23.50;97.50;;;;;;5053592;28;20430;-57
2022/08/04 03:01:33;;;;;;;3.93;3.20;;;23.30;97.80;;;;;;5053429;28;20563;-57
2022/08/04 03:04:14;;;;;;;5.30;3.50;;;23.30;98.00;;;;;;5053485;28;20450;-57
2022/08/04 03:07:10;;;;;;;3.50;3.20;;;23.30;98.00;;;;;;5053939;28;20505;-57
2022/08/04 03:10:14;;;;;;;3.47;3.17;;;23.30;98.00;;;;;;5053579;28;20530;-57
2022/08/04 03:13:29;;;;;;;4.03;3.60;;;23.30;97.90;;;;;;5053716;28;20809;-57
2022/08/04 03:16:07;;;;;;;4.80;4.30;;;23.30;98.20;;;;;;4942173;29;20561;-57
2022/08/04 03:19:12;;;;;;;4.13;3.77;;;23.30;98.40;;;;;;5037996;28;20967;-58
2022/08/04 03:22:20;;;;;;;5.43;3.50;;;23.30;98.50;;;;;;5053105;28;20473;-57
2022/08/04 03:25:28;;;;;;;5.40;3.77;;;23.30;98.40;;;;;;5053747;28;20969;-57
2022/08/04 03:28:43;;;;;;;3.53;3.10;;;23.30;98.50;;;;;;5053336;28;20429;-57
2022/08/04 03:31:26;;;;;;;6.77;3.83;;;23.40;98.40;;;;;;5033012;28;20479;-57
2022/08/04 03:34:06;;;;;;;6.10;3.40;;;23.10;99.00;;;;;;5052929;28;20528;-57
2022/08/04 03:37:03;;;;;;;4.87;3.70;;;23.10;99.20;;;;;;5052904;28;20560;-57
2022/08/04 03:39:58;;;;;;;6.37;3.30;;;22.90;99.60;;;;;;5053008;28;20461;-57
2022/08/04 03:43:04;;;;;;;5.00;3.63;;;22.90;99.90;;;;;;5053445;28;20504;-57
2022/08/04 03:46:16;;;;;;;4.07;3.23;;;22.90;99.90;;;;;;5052760;28;20957;-57
2022/08/04 03:49:08;;;;;;;6.60;3.77;;;22.90;99.90;;;;;;4994688;28;20463;-57
2022/08/04 03:55:07;;;;;;;4.80;3.40;;;23.10;99.90;;;;;;5053119;28;20405;-56
2022/08/04 03:57:57;;;;;;;6.10;3.93;;;23.20;99.90;;;;;;4971902;28;20498;-57
2022/08/04 04:00:29;;;;;;;4.80;3.20;;;23.20;99.90;;;;;;5046257;28;20556;-57
2022/08/04 04:03:14;;;;;;;4.53;4.13;;;23.20;99.90;;;;;;5052508;28;20786;-57
2022/08/04 04:06:20;;;;;;;6.63;4.20;;;23.00;99.90;;;;;;5052917;28;20808;-57
2022/08/04 04:09:13;;;;;;;4.43;3.57;;;22.80;99.90;;;;;;5053089;28;20536;-57
2022/08/04 04:12:15;;;;;;;5.50;4.07;;;22.70;99.90;;;;;;5052950;28;20946;-57
2022/08/04 04:15:08;;;;;;;7.30;4.00;;;22.80;99.90;;;;;;5052985;28;20829;-57
2022/08/04 04:18:00;;;;;;;6.23;3.73;;;22.70;99.90;;;;;;5052702;28;20845;-57
2022/08/04 04:20:53;;;;;;;3.83;3.43;;;22.60;99.90;;;;;;5055330;28;20607;-57
2022/08/04 04:23:34;;;;;;;4.00;3.60;;;22.60;99.90;;;;;;5047851;28;20867;-57
2022/08/04 04:26:14;;;;;;;4.50;4.10;;;22.70;99.90;;;;;;5056540;28;20512;-57
2022/08/04 04:29:08;;;;;;;10.47;4.07;;;22.70;99.90;;;;;;5056542;28;20426;-57
2022/08/04 04:31:51;;;;;;;4.27;3.90;;;22.60;99.90;;;;;;5056497;28;20473;-57
2022/08/04 04:34:30;;;;;;;4.70;4.20;;;22.70;99.90;;;;;;5056150;28;20460;-57
2022/08/04 04:37:14;;;;;;;5.53;4.00;;;22.80;99.90;;;;;;5056397;28;20490;-57
2022/08/04 04:40:03;;;;;;;4.33;3.93;;;22.80;99.90;;;;;;5056437;28;20547;-57
2022/08/04 04:42:46;;;;;;;4.80;3.53;;;22.90;99.90;;;;;;5056172;28;20433;-57
2022/08/04 04:45:24;;;;;;;8.33;4.37;;;23.00;99.90;;;;;;5055887;28;20576;-57
2022/08/04 04:47:58;;;;;;;3.80;3.50;;;23.10;99.90;;;;;;5056081;28;20516;-57
2022/08/04 04:50:36;;;;;;;4.80;3.50;;;23.10;99.90;;;;;;5056184;28;20548;-57
2022/08/04 04:53:12;;;;;;;5.43;4.30;;;22.90;99.90;;;;;;5055956;28;20422;-57
2022/08/04 04:55:47;;;;;;;4.67;3.90;;;22.90;99.90;;;;;;5056270;28;20531;-57
2022/08/04 04:58:18;;;;;;;4.93;3.40;;;22.80;99.90;;;;;;5055715;28;20468;-57
2022/08/04 05:01:06;;;;;;;6.83;6.13;;;22.80;99.90;;;;;;5055936;28;20465;-57
2022/08/04 05:03:52;;;;;;;4.70;4.30;;;22.90;99.90;;;;;;5055543;28;20600;-57
2022/08/04 05:06:35;;;;;;;7.13;3.53;;;23.00;99.90;;;;;;5055976;28;20437;-57
2022/08/04 05:09:24;;;;;;;4.47;4.00;;;23.10;99.90;;;;;;5055930;28;20484;-57
2022/08/04 05:12:17;;;;;;;8.50;4.10;;;23.10;99.90;;;;;;5055748;28;20476;-57
2022/08/04 05:14:47;;;;;;;6.73;3.97;;;23.10;99.90;;;;;;5055125;28;20510;-56
2022/08/04 05:17:21;;;;;;;4.43;3.60;;;23.10;99.90;;;;;;5055730;28;20499;-57
2022/08/04 05:20:00;;;;;;;10.87;4.20;;;23.20;99.90;;;;;;5055240;28;20473;-57
2022/08/04 05:22:32;;;;;;;7.93;4.40;;;23.20;99.90;;;;;;5055369;28;20483;-57
2022/08/04 05:25:06;;;;;;;7.70;4.00;;;23.20;99.90;;;;;;5055364;28;20929;-57
2022/08/04 05:27:40;;;;;;;4.17;2.93;;;23.30;99.90;;;;;;5055537;28;20528;-57
2022/08/04 05:30:08;;;;;;;9.20;4.53;;;23.40;99.90;;;;;;5054890;28;20472;-57
2022/08/04 05:32:45;;;;;;;8.73;4.63;;;23.50;99.90;;;;;;5053977;28;20453;-57
2022/08/04 05:35:17;;;;;;;9.83;5.20;;;23.50;99.90;;;;;;5055282;28;20796;-57
2022/08/04 05:37:47;;;;;;;8.93;3.43;;;23.60;99.90;;;;;;5055335;28;20469;-57
2022/08/04 05:40:17;;;;;;;6.63;4.37;;;23.70;99.90;;;;;;5055035;28;21078;-57
2022/08/04 05:42:47;;;;;;;5.47;4.17;;;23.80;99.90;;;;;;5055206;28;20452;-56
2022/08/04 05:45:14;;;;;;;6.93;4.43;;;23.90;99.90;;;;;;5054723;28;20981;-57
2022/08/04 05:47:42;;;;;;;18.50;4.13;;;23.90;99.90;;;;;;5054749;28;20857;-57
2022/08/04 05:50:10;;;;;;;14.83;4.60;;;24.00;99.90;;;;;;5054986;28;20471;-57
2022/08/04 05:52:38;;;;;;;9.03;4.10;;;24.00;99.90;;;;;;5055078;28;20544;-57
2022/08/04 05:55:11;;;;;;;5.60;4.00;;;24.00;99.90;;;;;;5054549;28;20481;-57
2022/08/04 05:57:41;;;;;;;14.60;4.60;;;24.10;99.90;;;;;;5054763;28;21044;-57
2022/08/04 06:00:10;;;;;;;4.60;3.83;;;24.20;99.90;;;;;;5054558;28;20465;-57
2022/08/04 06:02:39;;;;;;;8.13;4.63;;;24.30;99.90;;;;;;5054471;28;20987;-57
2022/08/04 06:05:07;;;;;;;6.87;4.07;;;24.40;99.90;;;;;;5054488;28;20456;-57
2022/08/04 06:07:34;;;;;;;5.10;4.10;;;24.50;99.30;;;;;;5054657;28;20459;-57
2022/08/04 06:10:01;;;;;;;8.13;3.77;;;24.70;99.30;;;;;;5054394;28;20481;-56
2022/08/04 06:12:34;;;;;;;5.20;3.70;;;24.70;98.90;;;;;;5054086;28;20520;-56
2022/08/04 06:15:02;;;;;;;6.10;3.40;;;24.80;98.40;;;;;;5054417;28;20430;-57
2022/08/04 06:17:34;;;;;;;6.97;3.50;;;24.90;98.20;;;;;;5054124;28;20484;-57
2022/08/04 06:20:02;;;;;;;5.10;3.40;;;25.00;97.70;;;;;;5054333;28;20496;-57
2022/08/04 06:22:33;;;;;;;6.30;3.83;;;25.10;97.70;;;;;;5054392;28;20452;-57
2022/08/04 06:25:02;;;;;;;4.47;3.10;;;25.10;97.30;;;;;;5053702;28;20529;-56
2022/08/04 06:27:31;;;;;;;4.13;3.70;;;25.20;97.30;;;;;;5054617;28;20488;-56
2022/08/04 06:30:00;;;;;;;5.00;4.20;;;25.30;96.80;;;;;;5054097;28;20484;-57
2022/08/04 06:32:35;;;;;;;4.17;3.37;;;25.40;96.50;;;;;;5054165;28;20793;-56
2022/08/04 06:35:06;;;;;;;5.03;3.90;;;25.50;96.90;;;;;;5053856;28;20789;-57
2022/08/04 06:37:36;;;;;;;7.33;3.73;;;25.50;96.30;;;;;;5053902;28;20992;-56
2022/08/04 06:40:05;;;;;;;3.57;3.23;;;25.60;96.00;;;;;;5053932;28;20477;-56
2022/08/04 06:42:33;;;;;;;6.40;4.40;;;25.70;95.70;;;;;;5053580;28;20473;-57
2022/08/04 06:45:01;;;;;;;4.23;3.83;;;25.70;96.00;;;;;;5053294;28;20503;-56
2022/08/04 06:47:31;;;;;;;8.73;3.10;;;25.80;95.20;;;;;;5053987;28;20499;-56
2022/08/04 06:50:00;;;;;;;3.83;3.43;;;25.80;95.50;;;;;;5053607;28;20548;-56
2022/08/04 06:52:28;;;;;;;4.23;3.50;;;25.90;95.70;;;;;;5053796;28;20477;-56
2022/08/04 06:54:55;;;;;;;3.37;3.10;;;26.00;95.20;;;;;;5053306;28;20456;-56
2022/08/04 06:57:26;;;;;;;3.50;3.20;;;26.10;94.80;;;;;;5053512;28;20511;-56
2022/08/04 06:59:57;;;;;;;3.57;3.27;;;26.10;95.00;;;;;;5053378;28;20985;-56
2022/08/04 07:02:28;;;;;;;5.40;3.70;;;26.20;94.60;;;;;;5053461;28;20528;-56
2022/08/04 07:04:56;;;;;;;8.93;3.40;;;26.30;94.10;;;;;;5053704;28;20488;-56
2022/08/04 07:07:25;;;;;;;8.70;2.97;;;26.40;94.30;;;;;;5053619;28;20543;-56
2022/08/04 07:09:54;;;;;;;6.87;3.47;;;26.50;93.60;;;;;;5053310;28;20481;-56
2022/08/04 07:12:24;;;;;;;5.40;3.40;;;26.50;94.10;;;;;;5053426;28;21005;-58
2022/08/04 07:14:52;;;;;;;3.63;3.33;;;26.50;93.40;;;;;;5053456;28;20522;-57
2022/08/04 07:17:22;;;;;;;5.13;3.37;;;26.60;93.50;;;;;;5053083;28;20445;-60
2022/08/04 07:19:49;;;;;;;4.57;3.13;;;26.70;93.10;;;;;;5053316;28;20560;-57
2022/08/04 07:22:17;;;;;;;4.30;3.90;;;26.70;92.90;;;;;;5053221;28;20536;-57
2022/08/04 07:24:44;;;;;;;5.50;3.80;;;26.70;92.80;;;;;;5053068;28;20883;-57
2022/08/04 07:27:13;;;;;;;4.90;3.80;;;26.80;93.00;;;;;;5053093;28;20430;-56
2022/08/04 07:29:41;;;;;;;3.50;3.20;;;26.90;92.60;;;;;;5053023;28;20489;-56
2022/08/04 07:32:10;;;;;;;5.47;3.70;;;27.00;92.70;;;;;;5052971;28;20740;-56
2022/08/04 07:34:38;;;;;;;6.57;3.30;;;27.00;92.50;;;;;;5052576;28;20953;-57
2022/08/04 07:37:05;;;;;;;4.23;3.70;;;27.10;92.60;;;;;;5053342;28;20860;-56
2022/08/04 07:39:35;;;;;;;6.50;4.00;;;27.10;92.40;;;;;;5052892;28;20512;-56
2022/08/04 07:42:04;;;;;;;4.10;3.70;;;27.20;92.10;;;;;;5053084;28;20522;-56
2022/08/04 07:44:33;;;;;;;4.57;3.40;;;27.20;92.20;;;;;;5052520;28;20500;-56
2022/08/04 07:47:01;;;;;;;3.87;3.57;;;27.30;91.80;;;;;;5052715;28;20536;-55
2022/08/04 07:49:29;;;;;;;3.57;3.23;;;27.50;91.70;;;;;;5052828;28;20548;-58
2022/08/04 07:51:56;;;;;;;9.50;3.60;;;28.00;91.30;;;;;;5052589;28;20452;-58
2022/08/04 07:54:24;;;;;;;4.57;3.23;;;28.90;90.40;;;;;;5051937;28;20887;-58
2022/08/04 07:56:52;;;;;;;3.83;3.40;;;;;;;;;;5052582;28;20449;-58
2022/08/04 07:59:19;;;;;;;4.10;3.70;;;30.50;84.60;;;;;;5052384;28;20481;-56
2022/08/04 08:01:48;;;;;;;7.30;3.70;;;31.10;83.50;;;;;;5052446;28;20989;-58
2022/08/04 08:04:16;;;;;;;5.33;3.40;;;31.90;80.50;;;;;;5052699;28;20477;-57
2022/08/04 08:06:43;;;;;;;4.60;3.37;;;32.50;79.80;;;;;;5052686;28;20547;-57
2022/08/04 08:09:13;;;;;;;5.17;3.47;;;32.90;77.40;;;;;;5052579;28;20520;-56
2022/08/04 08:11:40;;;;;;;6.53;3.10;;;33.10;76.30;;;;;;5052621;28;20496;-58
2022/08/04 08:14:08;;;;;;;6.40;3.67;;;33.30;75.60;;;;;;5052273;28;20869;-58
2022/08/04 08:16:36;;;;;;;5.67;3.43;;;33.20;73.60;;;;;;5052781;28;20460;-57
2022/08/04 08:25:53;;;;;;;5.17;3.43;;;34.30;68.00;;;;;;5045663;28;20539;-58
2022/08/04 08:28:20;;;;;;;14.37;3.70;;;34.40;67.20;;;;;;5052418;28;20498;-58
2022/08/04 08:30:48;;;;;;;5.77;3.13;;;34.70;67.20;;;;;;5052160;28;20547;-58
2022/08/04 08:33:16;;;;;;;3.63;3.33;;;34.30;68.00;;;;;;5052480;28;20444;-58
2022/08/04 08:35:51;;;;;;;4.37;2.90;;;34.70;67.20;;;;;;5052424;28;20539;-58
2022/08/04 08:38:27;;;;;;;5.77;2.87;;;35.20;63.90;;;;;;5052569;28;20551;-58
2022/08/04 08:41:01;;;;;;;4.90;3.00;;;35.30;62.50;;;;;;5052804;28;20460;-58
2022/08/04 08:43:51;;;;;;;3.07;2.80;;;35.40;60.50;;;;;;5052557;28;20430;-58
2022/08/04 08:46:52;;;;;;;3.30;2.80;;;35.30;60.90;;;;;;5032717;28;20966;-58
2022/08/04 08:49:52;;;;;;;4.37;2.47;;;35.40;60.40;;;;;;5032108;28;20444;-58
2022/08/04 08:52:38;;;;;;;3.00;2.80;;;36.30;59.30;;;;;;5032909;28;20512;-58
2022/08/04 08:55:22;;;;;;;4.57;2.70;;;35.90;58.40;;;;;;5032672;28;20437;-58
2022/08/04 08:58:06;;;;;;;3.27;2.97;;;36.00;58.50;;;;;;5032357;28;20475;-58
2022/08/04 09:00:45;;;;;;;3.27;2.60;;;36.20;58.10;;;;;;5032441;28;20990;-58
2022/08/04 09:03:48;;;;;;;3.10;2.63;;;36.60;58.60;;;;;;5032098;28;20925;-58
2022/08/04 09:06:38;;;;;;;4.00;2.83;;;36.60;57.60;;;;;;5034260;28;20972;-58
2022/08/04 09:09:40;;;;;;;4.10;2.70;;;37.20;72.90;;;;;;5036059;28;20433;-58
2022/08/04 09:12:15;;;;;;;4.17;2.60;;;37.20;57.20;;;;;;5016915;28;20449;-56
2022/08/04 09:14:51;;;;;;;7.03;3.10;;;37.00;56.70;;;;;;5035988;28;20433;-56
2022/08/04 09:17:25;;;;;;;4.30;2.50;;;36.60;56.60;;;;;;5035644;28;20433;-56
2022/08/04 09:19:57;;;;;;;3.00;2.80;;;37.20;56.30;;;;;;5035903;28;20564;-56
2022/08/04 09:22:33;;;;;;;6.20;3.70;;;37.40;56.40;;;;;;5036054;28;20505;-57
2022/08/04 09:25:07;;;;;;;3.13;2.83;;;37.70;56.00;;;;;;5035850;28;20426;-57
2022/08/04 09:27:44;;;;;;;3.97;3.30;;;37.50;55.20;;;;;;5035788;28;20853;-57
2022/08/04 09:30:13;;;;;;;4.20;2.90;;;38.20;55.10;;;;;;5035395;28;20465;-56
2022/08/04 09:32:47;;;;;;;7.00;2.70;;;38.50;54.50;;;;;;5035369;28;20809;-57
2022/08/04 09:35:23;;;;;;;4.67;2.80;;;37.80;54.00;;;;;;5035857;28;20436;-57
2022/08/04 09:38:02;;;;;;;2.90;2.47;;;37.60;55.00;;;;;;5035655;28;20495;-57
2022/08/04 09:40:35;;;;;;;4.33;2.60;;;37.70;54.40;;;;;;5035495;28;20967;-57
2022/08/04 09:43:17;;;;;;;3.00;2.73;;;37.70;54.40;;;;;;5035622;28;20448;-57
2022/08/04 09:45:53;;;;;;;4.33;2.70;;;38.50;52.70;;;;;;5050659;28;20564;-56
2022/08/04 09:48:28;;;;;;;3.30;3.00;;;38.30;52.50;;;;;;5055099;28;20580;-56
2022/08/04 09:50:58;;;;;;;5.80;3.13;;;38.30;52.50;;;;;;5055164;28;20941;-57
2022/08/04 09:53:49;;;;;;;3.73;2.77;;;38.90;51.50;;;;;;5054989;28;20281;-57
2022/08/04 09:56:24;;;;;;;5.10;2.73;;;39.10;51.60;;;;;;5055464;28;20198;-57
2022/08/04 09:59:01;;;;;;;4.73;3.13;;;39.10;51.80;;;;;;5055307;28;20503;-57
2022/08/04 10:01:31;;;;;;;2.97;2.50;;;39.20;51.60;;;;;;5054746;28;20313;-56
2022/08/04 10:04:02;;;;;;;5.00;2.43;;;38.60;51.30;;;;;;5054385;28;20449;-56
2022/08/04 10:06:46;;;;;;;3.77;3.47;;;37.90;51.50;;;;;;5055267;28;20187;-57
2022/08/04 10:09:34;;;;;;;3.13;2.80;;;38.80;51.50;;;;;;5055025;28;20503;-57
2022/08/04 10:12:16;;;;;;;5.77;2.40;;;38.30;49.60;;;;;;5055219;28;20851;-57
2022/08/04 10:14:52;;;;;;;3.10;2.30;;;38.10;49.50;;;;;;5054714;28;20528;-57
2022/08/04 10:17:33;;;;;;;3.57;3.27;;;38.20;49.30;;;;;;5053747;28;20799;-57
2022/08/04 10:20:09;;;;;;;2.80;2.60;;;38.60;49.40;;;;;;5054746;28;20833;-57
2022/08/04 10:22:42;;;;;;;2.70;2.50;;;38.60;49.40;;;;;;5054311;28;20874;-57
2022/08/04 10:25:21;;;;;;;3.03;2.63;;;38.80;48.50;;;;;;5054214;28;20910;-57
2022/08/04 10:27:52;;;;;;;3.17;2.80;;;38.80;48.60;;;;;;5054579;28;20436;-57
2022/08/04 10:30:22;;;;;;;5.00;2.90;;;39.30;49.40;;;;;;5054586;28;20575;-57
2022/08/04 10:32:58;;;;;;;3.30;3.00;;;39.10;49.30;;;;;;5054322;28;20449;-57
2022/08/04 10:35:29;;;;;;;3.10;2.70;;;39.10;49.20;;;;;;5054096;28;20424;-57
2022/08/04 10:38:06;;;;;;;3.13;2.93;;;39.50;49.10;;;;;;5054078;28;20818;-57
2022/08/04 10:40:44;;;;;;;2.80;2.60;;;39.10;48.70;;;;;;5053885;28;20487;-57
2022/08/04 10:43:25;;;;;;;3.57;3.27;;;39.30;48.60;;;;;;5054506;28;20435;-57
2022/08/04 10:45:58;;;;;;;5.63;2.83;;;39.30;48.70;;;;;;5053579;28;20472;-57
2022/08/04 10:48:36;;;;;;;5.03;2.60;;;39.20;47.30;;;;;;5054064;28;20512;-57
2022/08/04 10:51:18;;;;;;;3.20;2.90;;;39.80;47.60;;;;;;5053746;28;20551;-56
2022/08/04 10:53:50;;;;;;;3.20;3.00;;;40.00;47.90;;;;;;5053695;28;20436;-56
2022/08/04 10:56:23;;;;;;;4.90;2.70;;;40.30;47.70;;;;;;5053798;28;20196;-56
2022/08/04 10:58:54;;;;;;;3.23;2.90;;;39.30;47.50;;;;;;5053797;28;20210;-57
2022/08/04 11:01:29;;;;;;;3.10;2.90;;;39.50;47.60;;;;;;5053786;28;20464;-57
2022/08/04 11:04:00;;;;;;;2.90;2.70;;;39.50;47.60;;;;;;5053528;28;20478;-57
2022/08/04 11:06:28;;;;;;;3.00;2.70;;;39.00;46.50;;;;;;5053203;28;20539;-57
2022/08/04 11:08:56;;;;;;;3.60;3.00;;;38.90;47.30;;;;;;5053284;28;20800;-57
2022/08/04 11:11:31;;;;;;;2.80;2.50;;;39.30;46.90;;;;;;5053700;28;20493;-57
2022/08/04 11:14:03;;;;;;;2.90;2.70;;;39.20;47.00;;;;;;5053083;28;20904;-57
2022/08/04 11:16:38;;;;;;;4.70;2.87;;;39.20;46.60;;;;;;5053333;28;20436;-57
2022/08/04 11:19:17;;;;;;;2.90;2.70;;;39.20;46.60;;;;;;5052942;28;20460;-57
2022/08/04 11:21:53;;;;;;;4.30;2.90;;;39.00;46.50;;;;;;5053378;28;20465;-57
2022/08/04 11:24:34;;;;;;;5.53;2.90;;;39.80;46.20;;;;;;5053183;28;20548;-57
2022/08/04 11:27:07;;;;;;;3.03;2.83;;;40.00;46.00;;;;;;5053317;28;20767;-57
2022/08/04 11:29:42;;;;;;;4.17;2.67;;;39.60;46.10;;;;;;5052266;28;20433;-57
2022/08/04 11:32:20;;;;;;;3.93;2.70;;;38.90;46.50;;;;;;5053225;28;20432;-57
2022/08/04 11:34:51;;;;;;;4.17;3.80;;;38.50;46.60;;;;;;5052592;28;20901;-57
2022/08/04 11:37:23;;;;;;;3.30;3.00;;;38.20;46.90;;;;;;5053217;28;20902;-57
2022/08/04 11:39:57;;;;;;;3.13;2.80;;;38.40;47.10;;;;;;5053014;28;20860;-57
2022/08/04 11:42:28;;;;;;;3.03;2.60;;;38.30;47.00;;;;;;5052835;28;20544;-58
2022/08/04 11:45:03;;;;;;;4.53;3.13;;;37.70;46.90;;;;;;5052531;28;20476;-56
2022/08/04 11:47:40;;;;;;;3.70;2.70;;;37.80;46.10;;;;;;5053093;28;20421;-55
2022/08/04 11:50:12;;;;;;;3.13;2.83;;;38.40;47.00;;;;;;5053111;28;20559;-56
2022/08/04 11:52:42;;;;;;;5.53;2.90;;;38.30;46.90;;;;;;5052799;28;20414;-56
2022/08/04 11:55:14;;;;;;;3.10;2.90;;;38.60;46.30;;;;;;5053181;28;20459;-56
2022/08/04 11:57:43;;;;;;;3.43;2.90;;;38.90;49.30;;;;;;5052669;28;20439;-58
2022/08/04 12:00:13;;;;;;;2.90;2.60;;;39.00;47.20;;;;;;5053047;28;20588;-57
2022/08/04 12:03:15;;;;;;;2.87;2.67;;;38.20;48.60;;;;;;5052920;28;20536;-57
2022/08/04 12:05:52;;;;;;;2.47;2.30;;;38.40;47.60;;;;;;5052971;28;20459;-57
2022/08/04 12:08:44;;;;;;;2.80;2.60;;;38.60;47.10;;;;;;5052658;28;20792;-57
2022/08/04 12:11:21;;;;;;;2.73;2.53;;;38.20;47.80;;;;;;5053166;28;20871;-58
2022/08/04 12:13:56;;;;;;;3.30;2.93;;;37.80;46.80;;;;;;5052816;28;20425;-57
2022/08/04 12:16:29;;;;;;;3.07;2.87;;;37.50;46.90;;;;;;5052372;28;20519;-57
2022/08/04 12:19:01;;;;;;;4.90;3.17;;;36.70;46.80;;;;;;5052439;28;20449;-57
2022/08/04 12:21:35;;;;;;;3.80;3.10;;;36.70;47.40;;;;;;5052399;28;20547;-57
2022/08/04 12:24:05;;;;;;;4.10;3.10;;;36.70;47.80;;;;;;5052696;28;20551;-57
2022/08/04 12:26:38;;;;;;;3.23;2.80;;;36.20;47.50;;;;;;5052479;28;20414;-57
2022/08/04 12:29:07;;;;;;;3.27;3.00;;;36.50;47.40;;;;;;5052326;28;20612;-57
2022/08/04 12:31:41;;;;;;;2.80;2.60;;;37.00;47.40;;;;;;5052423;28;20469;-57
2022/08/04 12:34:16;;;;;;;4.20;3.17;;;37.30;46.90;;;;;;5052606;28;20445;-57
2022/08/04 12:36:52;;;;;;;2.93;2.73;;;37.20;47.20;;;;;;5052472;28;20435;-57
2022/08/04 12:39:21;;;;;;;2.90;2.70;;;37.40;46.80;;;;;;5052315;28;20929;-57
2022/08/04 12:41:58;;;;;;;3.17;2.90;;;37.50;46.90;;;;;;5055628;28;20465;-57
2022/08/04 12:44:33;;;;;;;2.93;2.70;;;37.60;46.40;;;;;;5056276;28;20465;-57
2022/08/04 12:47:02;;;;;;;5.53;2.90;;;37.50;46.40;;;;;;5056625;28;20902;-57
2022/08/04 12:49:34;;;;;;;3.97;3.60;;;37.70;46.20;;;;;;5056127;28;20449;-57
2022/08/04 12:52:06;;;;;;;3.63;2.87;;;37.40;46.20;;;;;;5056145;28;20457;-57
2022/08/04 12:54:36;;;;;;;3.10;2.90;;;37.40;46.20;;;;;;5055806;28;20478;-57
2022/08/04 12:57:05;;;;;;;2.97;2.77;;;37.60;46.30;;;;;;5056101;28;20510;-57
2022/08/04 12:59:39;;;;;;;3.10;2.90;;;38.00;45.40;;;;;;5056155;28;20622;-57
2022/08/04 13:02:12;;;;;;;3.00;2.80;;;38.30;46.20;;;;;;5055933;28;20863;-57
2022/08/04 13:04:43;;;;;;;2.83;2.63;;;37.70;46.10;;;;;;5055809;28;20972;-57
2022/08/04 13:07:16;;;;;;;3.40;3.10;;;37.50;45.70;;;;;;5056351;28;20549;-58
2022/08/04 13:09:43;;;;;;;3.10;2.80;;;37.40;46.20;;;;;;5055885;28;21010;-57
2022/08/04 13:12:14;;;;;;;2.63;2.43;;;37.60;46.00;;;;;;5055672;28;20448;-58
2022/08/04 13:14:44;;;;;;;3.00;2.70;;;37.80;45.30;;;;;;5055904;28;20464;-57
2022/08/04 13:17:11;;;;;;;2.97;2.77;;;38.30;45.60;;;;;;5056191;28;20455;-58
2022/08/04 13:19:46;;;;;;;2.77;2.57;;;38.10;45.90;;;;;;5055703;28;20485;-57
2022/08/04 13:22:15;;;;;;;2.80;2.60;;;38.10;45.00;;;;;;5055937;28;20442;-57
2022/08/04 13:24:43;;;;;;;4.33;3.00;;;38.10;45.40;;;;;;5055687;28;20530;-57
2022/08/04 13:27:13;;;;;;;3.23;2.80;;;38.50;44.90;;;;;;5055631;28;20807;-57
2022/08/04 13:29:42;;;;;;;4.70;2.97;;;38.70;44.80;;;;;;5055680;28;20451;-58
2022/08/04 13:32:10;;;;;;;3.80;3.23;;;38.60;44.50;;;;;;5055127;28;20951;-57
2022/08/04 13:34:42;;;;;;;3.37;3.07;;;38.00;45.30;;;;;;5055202;28;20539;-58
2022/08/04 13:37:10;;;;;;;3.10;2.80;;;37.30;45.20;;;;;;5055508;28;20453;-57
2022/08/04 13:39:44;;;;;;;4.73;3.00;;;36.70;45.30;;;;;;5055163;28;20690;-57
2022/08/04 13:42:13;;;;;;;3.97;3.00;;;36.70;46.20;;;;;;5055287;28;20453;-57